Time;durP1;ratioP1;P1;durP2;ratioP2;P2;SDS_P1;SDS_P2;PMS_P1;PMS_P2;Temp;Humidity;BMP_temperature;BMP_pressure;BME280_temperature;BME280_humidity;BME280_pressure;Samples;Min_cycle;Max_cycle;Signal;HPM_P1;HPM_P2
2021/10/02 00:41:04;;;;;;;;;;;;;;;4.72;92.62;99566.47;5012562;28;19928;-83
2021/10/02 00:46:22;;;;;;;;;;;;;;;4.88;94.13;99562.63;5012150;28;19932;-79
2021/10/02 00:48:47;;;;;;;;;;;;;;;5.13;95.08;99569.91;5012776;28;20288;-81
2021/10/02 00:51:13;;;;;;;;;;;;;;;5.85;100.00;99564.56;5012299;28;19921;-81
2021/10/02 00:53:38;;;;;;;;;;;;;;;6.39;100.00;99559.59;5012608;28;20261;-80
2021/10/02 00:56:04;;;;;;;;;;;;;;;7.03;100.00;99556.75;4994492;28;19925;-79
2021/10/02 00:58:30;;;;;;;;;;;;;;;7.56;100.00;99554.13;4993218;28;19925;-81
2021/10/02 03:15:12;;;;;;;;;;;;;;;11.32;100.00;99473.97;5791208;22;19977;-78
2021/10/02 03:17:38;;;;;;;;;;;;;;;11.34;100.00;99477.38;4990755;28;19970;-79
2021/10/02 03:20:06;;;;;;;;;;;;;;;11.35;100.00;99471.16;4994625;28;19925;-79
2021/10/02 03:22:32;;;;;;;;;;;;;;;11.40;100.00;99471.75;4994946;28;19924;-80
2021/10/02 03:24:58;;;;;;;;;;;;;;;11.38;100.00;99457.72;4994711;28;19973;-79
2021/10/02 03:27:25;;;;;;;;;;;;;;;11.39;100.00;99459.47;4994420;28;19922;-80
2021/10/02 03:29:51;;;;;;;;;;;;;;;11.46;100.00;99452.03;4993378;28;19918;-80
2021/10/02 03:32:16;;;;;;;;;;;;;;;11.47;100.00;99459.03;4994606;28;20407;-80
2021/10/02 03:34:41;;;;;;;;;;;;;;;11.45;100.00;99455.63;4994337;28;20427;-81
2021/10/02 03:37:07;;;;;;;;;;;;;;;11.45;100.00;99448.53;4994557;28;20288;-80
2021/10/02 03:39:33;;;;;;;;;;;;;;;11.48;100.00;99447.50;4994377;28;20140;-79
2021/10/02 03:42:05;;;;;;;;;;;;;;;11.49;100.00;99453.66;4994409;28;20289;-80
2021/10/02 03:44:30;;;;;;;;;;;;;;;11.55;100.00;99456.00;4992603;28;19924;-80
2021/10/02 03:46:56;;;;;;;;;;;;;;;11.53;100.00;99456.06;4993292;28;19918;-79
2021/10/02 03:49:21;;;;;;;;;;;;;;;11.59;100.00;99454.91;4994244;28;19928;-80
2021/10/02 03:51:46;;;;;;;;;;;;;;;10.39;100.00;99447.59;4994139;28;19917;-82
2021/10/02 03:54:11;;;;;;;;;;;;;;;8.93;100.00;99444.34;4994161;28;19917;-81
2021/10/02 03:56:37;;;;;;;;;;;;;;;8.18;100.00;99444.63;4994020;28;19929;-80
2021/10/02 03:59:02;;;;;;;;;;;;;;;8.00;100.00;99438.25;4992778;28;19918;-80
2021/10/02 04:01:27;;;;;;;;;;;;;;;7.62;100.00;99437.03;4993952;28;19926;-78
2021/10/02 04:03:53;;;;;;;;;;;;;;;7.48;100.00;99441.94;4993926;28;20341;-82
2021/10/02 04:06:18;;;;;;;;;;;;;;;7.34;100.00;99438.03;4994197;28;19925;-83
2021/10/02 04:08:43;;;;;;;;;;;;;;;7.19;100.00;99441.19;4993892;28;20481;-81
2021/10/02 04:11:08;;;;;;;;;;;;;;;7.19;100.00;99443.81;4993700;28;19968;-85
2021/10/02 04:13:34;;;;;;;;;;;;;;;7.07;100.00;99448.59;4993670;28;20368;-81
2021/10/02 04:15:59;;;;;;;;;;;;;;;6.90;100.00;99456.19;4992528;28;19921;-85
2021/10/02 04:18:24;;;;;;;;;;;;;;;6.88;100.00;99458.03;4976068;28;19922;-84
2021/10/02 04:20:49;;;;;;;;;;;;;;;6.72;100.00;99445.34;4993718;28;19925;-81
2021/10/02 04:23:15;;;;;;;;;;;;;;;6.86;100.00;99441.41;4993540;28;20304;-83
2021/10/02 04:25:40;;;;;;;;;;;;;;;7.05;100.00;99441.66;4975827;28;19921;-83
2021/10/02 04:28:05;;;;;;;;;;;;;;;6.81;100.00;99449.47;4993412;28;19933;-83
2021/10/02 04:30:30;;;;;;;;;;;;;;;6.84;100.00;99449.34;4992288;28;19921;-82
2021/10/02 04:32:56;;;;;;;;;;;;;;;6.75;100.00;99443.53;4993405;28;19945;-83
2021/10/02 04:35:21;;;;;;;;;;;;;;;6.56;100.00;99449.41;4993287;28;19921;-83
2021/10/02 04:37:47;;;;;;;;;;;;;;;6.53;100.00;99449.50;4993550;28;19967;-81
2021/10/02 04:40:13;;;;;;;;;;;;;;;6.44;100.00;99455.91;4992577;28;19921;-81
2021/10/02 04:42:38;;;;;;;;;;;;;;;6.40;100.00;99442.88;4992926;28;20392;-82
2021/10/02 04:45:03;;;;;;;;;;;;;;;6.45;100.00;99438.34;4992026;28;19945;-81
2021/10/02 04:47:29;;;;;;;;;;;;;;;6.32;100.00;99436.09;4993058;28;19914;-82
2021/10/02 04:49:54;;;;;;;;;;;;;;;6.24;100.00;99432.84;4993246;28;19922;-81
2021/10/02 04:52:19;;;;;;;;;;;;;;;6.26;100.00;99443.31;4992962;28;20427;-82
2021/10/02 04:54:45;;;;;;;;;;;;;;;6.15;100.00;99438.38;4993058;28;20365;-82
2021/10/02 04:57:10;;;;;;;;;;;;;;;6.02;100.00;99442.31;4992796;28;19957;-81
2021/10/02 04:59:35;;;;;;;;;;;;;;;5.97;100.00;99434.53;4991730;28;19972;-82
2021/10/02 05:02:00;;;;;;;;;;;;;;;5.89;100.00;99434.72;4993096;28;20368;-82
2021/10/02 05:04:26;;;;;;;;;;;;;;;6.03;100.00;99428.22;4992906;28;19987;-83
2021/10/02 05:06:51;;;;;;;;;;;;;;;5.95;99.50;99433.66;4992960;28;19968;-82
2021/10/02 05:09:16;;;;;;;;;;;;;;;5.87;99.71;99425.16;4992830;28;19921;-82
2021/10/02 05:11:42;;;;;;;;;;;;;;;5.81;99.10;99418.31;4992779;28;19926;-82
2021/10/02 05:14:07;;;;;;;;;;;;;;;5.81;98.49;99419.16;4991472;28;20020;-81
2021/10/02 05:16:32;;;;;;;;;;;;;;;5.74;98.01;99422.03;4992277;28;20381;-81
2021/10/02 05:18:57;;;;;;;;;;;;;;;5.68;97.95;99422.19;4992774;28;19977;-81
2021/10/02 05:21:22;;;;;;;;;;;;;;;5.64;97.93;99422.28;4992612;28;20008;-81
2021/10/02 08:05:36;;;;;;;;;;;;;;;4.32;93.94;99420.44;5877654;22;19976;-80
2021/10/02 08:08:01;;;;;;;;;;;;;;;4.38;93.82;99415.03;5009047;28;20291;-82
2021/10/02 08:10:28;;;;;;;;;;;;;;;4.38;94.04;99412.41;5012673;28;20012;-79
2021/10/02 08:12:54;;;;;;;;;;;;;;;4.35;94.50;99404.63;4995754;28;19922;-80
2021/10/02 08:15:19;;;;;;;;;;;;;;;4.34;94.23;99398.53;4995582;28;19921;-80
2021/10/02 08:17:45;;;;;;;;;;;;;;;4.28;94.82;99392.56;4995845;28;19925;-79
2021/10/02 08:20:15;;;;;;;;;;;;;;;4.31;94.98;99397.75;5011810;28;19925;-79
2021/10/02 08:22:41;;;;;;;;;;;;;;;4.28;94.82;99387.31;5013333;28;19944;-80
2021/10/02 08:25:08;;;;;;;;;;;;;;;4.33;94.39;99390.69;5012863;28;19921;-81
2021/10/02 08:27:34;;;;;;;;;;;;;;;4.35;94.85;99389.72;5013338;28;19976;-80
2021/10/02 08:30:00;;;;;;;;;;;;;;;4.27;94.45;99385.59;5012339;28;20291;-81
2021/10/02 08:32:26;;;;;;;;;;;;;;;4.28;94.63;99384.69;5012569;28;19924;-80
2021/10/02 08:34:51;;;;;;;;;;;;;;;4.32;94.25;99370.59;5011647;28;19922;-80
2021/10/02 08:37:16;;;;;;;;;;;;;;;4.30;94.23;99372.41;5012947;28;19917;-79
2021/10/02 08:39:42;;;;;;;;;;;;;;;4.36;94.14;99369.63;5012974;28;19922;-80
2021/10/02 08:42:07;;;;;;;;;;;;;;;4.23;94.61;99368.19;5012587;28;19925;-80
2021/10/02 08:44:33;;;;;;;;;;;;;;;4.24;95.06;99360.28;5012855;28;19964;-79
2021/10/02 08:47:02;;;;;;;;;;;;;;;4.24;95.18;99362.06;5012765;28;19928;-83
2021/10/02 08:49:30;;;;;;;;;;;;;;;4.30;95.20;99364.53;4994068;28;20349;-80
2021/10/02 08:51:56;;;;;;;;;;;;;;;4.26;95.22;99357.63;5012581;28;19921;-80
2021/10/02 08:54:23;;;;;;;;;;;;;;;4.19;95.49;99347.28;4994611;28;20219;-80
2021/10/02 08:56:51;;;;;;;;;;;;;;;4.19;95.12;99349.91;4994986;28;19918;-80
2021/10/02 08:59:16;;;;;;;;;;;;;;;4.21;94.94;99355.09;5012601;28;20001;-83
2021/10/02 09:01:42;;;;;;;;;;;;;;;4.25;95.14;99354.16;5012525;28;19944;-80
2021/10/02 09:04:07;;;;;;;;;;;;;;;4.22;94.79;99350.75;4994766;28;20040;-81
2021/10/02 09:06:33;;;;;;;;;;;;;;;4.28;94.80;99351.44;5011104;28;19971;-82
2021/10/02 09:08:59;;;;;;;;;;;;;;;4.22;95.20;99343.72;5012188;28;20388;-82
2021/10/02 09:11:24;;;;;;;;;;;;;;;4.22;95.84;99338.47;5012411;28;19922;-83
2021/10/02 09:13:50;;;;;;;;;;;;;;;4.26;95.83;99339.25;5012390;28;19951;-80
2021/10/02 09:16:15;;;;;;;;;;;;;;;4.30;95.93;99330.44;5012234;28;20325;-82
2021/10/02 09:18:40;;;;;;;;;;;;;;;4.27;95.85;99322.63;5012250;28;19961;-80
2021/10/02 09:21:06;;;;;;;;;;;;;;;4.25;96.37;99324.44;5011253;28;19921;-79
2021/10/02 09:23:33;;;;;;;;;;;;;;;4.35;96.36;99326.78;5012437;28;20353;-80
2021/10/02 09:25:59;;;;;;;;;;;;;;;4.28;96.45;99321.75;5012073;28;19984;-81
2021/10/02 09:28:36;;;;;;;;;;;;;;;4.35;96.14;99313.66;5012237;28;20265;-82
2021/10/02 09:31:05;;;;;;;;;;;;;;;4.32;96.61;99310.25;5011925;28;19917;-81
2021/10/02 09:33:30;;;;;;;;;;;;;;;4.31;97.01;99300.69;5012017;28;19922;-80
2021/10/02 09:35:56;;;;;;;;;;;;;;;4.28;96.94;99291.13;5010931;28;19948;-82
2021/10/02 09:38:21;;;;;;;;;;;;;;;4.25;96.73;99283.34;5012137;28;20032;-81
2021/10/02 09:40:49;;;;;;;;;;;;;;;4.22;97.08;99277.31;5012191;28;19929;-80
2021/10/02 09:43:15;;;;;;;;;;;;;;;4.26;97.12;99284.19;5011345;28;19917;-80
2021/10/02 09:45:40;;;;;;;;;;;;;;;4.26;96.99;99279.81;5015140;28;19925;-81
2021/10/02 09:48:07;;;;;;;;;;;;;;;4.27;97.12;99285.91;5016193;28;20541;-80
2021/10/02 09:50:34;;;;;;;;;;;;;;;4.25;97.20;99285.94;5015013;28;20008;-79
2021/10/02 09:53:07;;;;;;;;;;;;;;;4.33;96.64;99293.63;5016016;28;20016;-80
2021/10/02 09:55:37;;;;;;;;;;;;;;;4.28;97.05;99292.91;5016076;28;19914;-80
2021/10/02 09:58:04;;;;;;;;;;;;;;;4.27;97.67;99285.91;5015850;28;19918;-80
2021/10/02 10:00:33;;;;;;;;;;;;;;;4.20;97.87;99282.59;5016037;28;20008;-82
2021/10/02 10:03:02;;;;;;;;;;;;;;;4.34;97.77;99276.97;5015381;28;20300;-80
2021/10/02 10:05:30;;;;;;;;;;;;;;;4.30;97.12;99276.19;5013978;28;19928;-80
2021/10/02 10:07:57;;;;;;;;;;;;;;;4.25;97.42;99278.09;5015763;28;19968;-81
2021/10/02 10:10:24;;;;;;;;;;;;;;;4.22;97.25;99272.91;5015634;28;20372;-80
2021/10/02 10:12:49;;;;;;;;;;;;;;;4.22;97.47;99272.06;5015616;28;19948;-81
2021/10/02 10:15:25;;;;;;;;;;;;;;;4.28;97.01;99261.41;5015302;28;19918;-80
2021/10/02 10:19:45;;;;;;;;;;;;;;;4.45;97.71;99256.59;5064023;27;2192556;-82
2021/10/02 10:22:10;;;;;;;;;;;;;;;4.23;97.20;99263.28;5142907;27;19926;-81
2021/10/02 10:24:36;;;;;;;;;;;;;;;4.26;97.38;99271.06;5142572;27;20366;-81
2021/10/02 10:27:02;;;;;;;;;;;;;;;4.21;97.79;99271.19;5161275;27;20474;-81
2021/10/02 10:29:38;;;;;;;;;;;;;;;4.28;97.33;99271.91;5159900;27;20006;-81
2021/10/02 10:32:05;;;;;;;;;;;;;;;4.22;97.08;99254.56;5160918;27;19915;-81
2021/10/02 10:34:31;;;;;;;;;;;;;;;4.20;97.46;99245.88;5161099;27;19922;-82
2021/10/02 10:36:56;;;;;;;;;;;;;;;4.25;97.13;99235.28;5160386;27;20318;-81
2021/10/02 10:39:22;;;;;;;;;;;;;;;4.21;96.95;99226.59;5161063;27;20002;-81
2021/10/02 10:41:48;;;;;;;;;;;;;;;4.21;97.02;99217.88;5160738;27;19922;-82
2021/10/02 10:44:14;;;;;;;;;;;;;;;4.19;97.61;99218.78;5141980;27;19919;-81
2021/10/02 10:46:39;;;;;;;;;;;;;;;4.19;97.45;99213.53;5161491;27;19915;-80
2021/10/02 10:49:05;;;;;;;;;;;;;;;4.23;97.66;99200.34;5160779;27;19968;-81
2021/10/02 10:51:30;;;;;;;;;;;;;;;4.29;97.66;99194.94;5159255;27;19919;-81
2021/10/02 10:53:56;;;;;;;;;;;;;;;4.29;98.17;99192.31;5160687;27;19927;-80
2021/10/02 10:56:38;;;;;;;;;;;;;;;4.24;98.33;99199.44;5161080;27;19919;-80
2021/10/02 10:59:03;;;;;;;;;;;;;;;4.25;98.72;99203.81;5160029;27;19994;-81
2021/10/02 11:01:36;;;;;;;;;;;;;;;4.23;98.17;99206.47;5160763;27;19915;-81
2021/10/02 11:04:02;;;;;;;;;;;;;;;4.22;98.75;99209.13;5159593;27;19922;-80
2021/10/02 11:07:00;;;;;;;;;;;;;;;4.30;97.97;99199.28;5159278;27;19915;-81
2021/10/02 11:09:35;;;;;;;;;;;;;;;4.28;97.75;99196.69;5096992;27;19912;-81
2021/10/02 11:12:00;;;;;;;;;;;;;;;4.29;98.21;99184.44;5160824;27;19922;-80
2021/10/02 11:14:45;;;;;;;;;;;;;;;4.29;98.11;99187.94;5160190;27;19916;-81
2021/10/02 11:17:10;;;;;;;;;;;;;;;4.34;98.44;99178.19;5160759;27;19967;-81
2021/10/02 11:19:39;;;;;;;;;;;;;;;4.37;98.11;99177.22;5158771;27;19923;-81
2021/10/02 11:22:07;;;;;;;;;;;;;;;4.22;98.12;99168.00;5159571;27;20397;-80
2021/10/02 11:24:39;;;;;;;;;;;;;;;4.33;97.84;99160.72;5159308;27;19926;-81
2021/10/02 11:27:05;;;;;;;;;;;;;;;4.27;97.66;99167.88;5159476;27;20031;-81
2021/10/02 11:29:31;;;;;;;;;;;;;;;4.29;97.89;99168.69;5155395;27;20373;-81
2021/10/02 11:32:15;;;;;;;;;;;;;;;4.32;97.71;99168.63;5145370;27;19999;-82
2021/10/02 11:35:01;;;;;;;;;;;;;;;4.31;97.88;99167.78;5144037;27;19947;-81
2021/10/02 11:37:39;;;;;;;;;;;;;;;4.30;97.63;99154.69;5145536;27;19928;-82
2021/10/02 11:40:04;;;;;;;;;;;;;;;4.31;97.69;99156.44;5145901;27;20385;-81
2021/10/02 11:42:29;;;;;;;;;;;;;;;4.38;97.54;99149.25;5145623;27;19919;-81
2021/10/02 11:44:56;;;;;;;;;;;;;;;4.34;97.65;99146.72;5145014;27;19919;-81
2021/10/02 11:47:29;;;;;;;;;;;;;;;4.31;97.25;99144.16;5145887;27;19946;-82
2021/10/02 11:50:06;;;;;;;;;;;;;;;4.35;97.30;99148.41;5143484;27;20077;-82
2021/10/02 11:52:32;;;;;;;;;;;;;;;4.39;96.98;99146.59;5145816;27;19969;-81
2021/10/02 11:55:17;;;;;;;;;;;;;;;4.33;96.86;99139.72;5145913;27;20354;-81
2021/10/02 11:58:16;;;;;;;;;;;;;;;4.32;97.03;99129.28;5145342;27;19922;-81
2021/10/02 12:00:44;;;;;;;;;;;;;;;4.23;97.08;99119.03;5085089;27;19919;-82
2021/10/02 12:03:10;;;;;;;;;;;;;;;4.36;96.71;99099.44;5143350;27;19973;-82
2021/10/02 12:05:35;;;;;;;;;;;;;;;4.30;96.87;99097.84;5144601;27;19925;-81
2021/10/02 12:08:01;;;;;;;;;;;;;;;4.42;97.36;99093.16;5145480;27;20002;-82
2021/10/02 12:10:26;;;;;;;;;;;;;;;4.38;96.94;99096.78;5145280;27;19985;-81
2021/10/02 12:12:52;;;;;;;;;;;;;;;4.38;96.50;99089.75;5145519;27;20405;-81
2021/10/02 12:15:30;;;;;;;;;;;;;;;4.43;96.57;99093.09;5144620;27;20501;-81
2021/10/02 12:17:55;;;;;;;;;;;;;;;4.43;96.80;99090.47;5125325;27;20359;-81
2021/10/02 12:20:21;;;;;;;;;;;;;;;4.41;96.60;99094.06;5125050;27;20009;-81
2021/10/02 12:22:46;;;;;;;;;;;;;;;4.49;96.59;99081.59;5145504;27;19915;-81
2021/10/02 12:25:11;;;;;;;;;;;;;;;4.50;96.47;99076.28;5126691;27;20267;-81
2021/10/02 12:27:37;;;;;;;;;;;;;;;4.53;95.90;99056.97;5144697;27;19961;-82
2021/10/02 12:30:03;;;;;;;;;;;;;;;4.49;96.23;99061.44;5145177;27;20285;-81
2021/10/02 12:32:30;;;;;;;;;;;;;;;4.52;96.76;99053.50;5144629;27;19972;-81
2021/10/02 12:35:00;;;;;;;;;;;;;;;4.47;96.27;99052.78;5143695;27;20254;-82
2021/10/02 12:37:33;;;;;;;;;;;;;;;4.53;96.11;99060.47;5144900;27;19915;-81
2021/10/02 12:40:09;;;;;;;;;;;;;;;4.60;96.45;99041.91;5125279;27;19915;-81
2021/10/02 12:42:34;;;;;;;;;;;;;;;4.63;95.97;99036.59;5143738;27;19919;-82
2021/10/02 12:44:59;;;;;;;;;;;;;;;4.68;95.86;99024.16;5144997;27;19926;-82
2021/10/02 12:47:26;;;;;;;;;;;;;;;4.68;96.31;99017.16;5144743;27;19923;-81
2021/10/02 12:49:52;;;;;;;;;;;;;;;5.20;100.00;99006.75;5143180;27;19919;-82
2021/10/02 12:52:18;;;;;;;;;;;;;;;5.42;100.00;99008.63;5145195;27;20270;-82
2021/10/02 12:54:51;;;;;;;;;;;;;;;5.77;100.00;99001.28;5144736;27;20010;-82
2021/10/02 12:57:23;;;;;;;;;;;;;;;6.37;100.00;98996.50;5144657;27;20321;-82
2021/10/02 12:59:57;;;;;;;;;;;;;;;6.96;100.00;98983.66;5144193;27;19915;-81
2021/10/02 13:02:22;;;;;;;;;;;;;;;7.37;100.00;98978.44;5143793;27;19998;-82
2021/10/02 13:04:48;;;;;;;;;;;;;;;7.67;100.00;98975.41;5143249;27;20334;-81
2021/10/02 13:07:23;;;;;;;;;;;;;;;7.84;100.00;98962.31;5144412;27;19933;-82
2021/10/02 13:09:58;;;;;;;;;;;;;;;8.09;100.00;98962.06;5143076;27;19940;-82
2021/10/02 13:12:33;;;;;;;;;;;;;;;8.22;100.00;98946.53;5143624;27;19919;-82
2021/10/02 13:15:00;;;;;;;;;;;;;;;8.43;100.00;98935.91;5144659;27;19922;-81
2021/10/02 13:17:25;;;;;;;;;;;;;;;8.54;100.00;98929.19;5143796;27;20006;-82
2021/10/02 13:20:03;;;;;;;;;;;;;;;8.61;100.00;98932.38;5143248;27;20009;-81
2021/10/02 13:22:36;;;;;;;;;;;;;;;8.75;100.00;98913.25;5143999;27;19915;-82
2021/10/02 13:25:06;;;;;;;;;;;;;;;8.83;100.00;98911.06;5143104;27;20387;-81
2021/10/02 13:27:35;;;;;;;;;;;;;;;8.93;100.00;98906.19;5142778;27;19915;-81
2021/10/02 13:30:04;;;;;;;;;;;;;;;9.01;100.00;98898.72;5142653;27;19964;-81
2021/10/02 13:32:29;;;;;;;;;;;;;;;9.09;100.00;98900.97;5144254;27;20009;-83
2021/10/02 13:34:55;;;;;;;;;;;;;;;9.21;100.00;98894.22;5142653;27;20026;-81
2021/10/02 13:37:24;;;;;;;;;;;;;;;9.28;100.00;98895.59;5143522;27;19919;-82
2021/10/02 13:39:51;;;;;;;;;;;;;;;9.36;100.00;98882.00;5143882;27;19915;-82
2021/10/02 13:42:18;;;;;;;;;;;;;;;9.43;100.00;98883.41;5144111;27;19924;-83
2021/10/02 13:44:43;;;;;;;;;;;;;;;9.43;100.00;98881.59;5142782;27;19919;-81
2021/10/02 13:47:09;;;;;;;;;;;;;;;9.51;100.00;98880.31;5143522;27;19968;-81
2021/10/02 13:49:34;;;;;;;;;;;;;;;9.61;100.00;98865.69;5142879;27;19919;-83
2021/10/02 13:52:00;;;;;;;;;;;;;;;9.59;100.00;98867.56;5142661;27;19915;-82
2021/10/02 13:54:25;;;;;;;;;;;;;;;9.72;100.00;98871.25;5143523;27;19919;-82
2021/10/02 13:56:55;;;;;;;;;;;;;;;9.79;100.00;98875.25;5143697;27;19919;-83
2021/10/02 13:59:20;;;;;;;;;;;;;;;9.87;100.00;98860.78;5143297;27;19915;-82
2021/10/02 14:01:46;;;;;;;;;;;;;;;9.92;100.00;98850.78;5143650;27;19926;-82
2021/10/02 14:04:12;;;;;;;;;;;;;;;9.95;100.00;98843.53;5143301;27;19912;-82
2021/10/02 14:06:38;;;;;;;;;;;;;;;10.04;100.00;98836.88;5141850;27;19923;-82
2021/10/02 14:09:04;;;;;;;;;;;;;;;10.07;100.00;98830.53;5142225;27;19915;-81
2021/10/02 14:11:29;;;;;;;;;;;;;;;10.14;100.00;98814.25;5143114;27;19915;-81
2021/10/02 14:13:55;;;;;;;;;;;;;;;10.13;100.00;98811.69;5143790;27;19915;-82
2021/10/02 14:16:21;;;;;;;;;;;;;;;10.18;100.00;98810.50;5142373;27;19912;-83
2021/10/02 14:18:46;;;;;;;;;;;;;;;10.23;100.00;98807.59;5143425;27;20010;-82
2021/10/02 14:21:12;;;;;;;;;;;;;;;10.26;100.00;98801.25;5141996;27;19922;-81
2021/10/02 14:23:37;;;;;;;;;;;;;;;10.30;100.00;98816.88;5142959;27;20014;-82
2021/10/02 14:26:03;;;;;;;;;;;;;;;9.20;100.00;98797.34;5143454;27;19915;-81
2021/10/02 14:28:31;;;;;;;;;;;;;;;7.96;100.00;98808.78;5143242;27;20026;-81
2021/10/02 14:30:56;;;;;;;;;;;;;;;7.48;100.00;98801.38;5142087;27;19920;-81
2021/10/02 14:33:22;;;;;;;;;;;;;;;7.13;100.00;98793.28;5143324;27;19940;-82
2021/10/02 14:35:48;;;;;;;;;;;;;;;6.91;100.00;98797.72;5141431;27;19977;-81
2021/10/02 14:38:13;;;;;;;;;;;;;;;6.68;100.00;98789.94;5142726;27;20266;-83
2021/10/02 14:40:39;;;;;;;;;;;;;;;6.58;100.00;98789.50;5143118;27;19919;-81
2021/10/02 14:43:05;;;;;;;;;;;;;;;6.51;100.00;98782.75;5142908;27;19911;-81
2021/10/02 14:45:30;;;;;;;;;;;;;;;6.43;100.00;98795.38;5124243;27;19919;-82
2021/10/02 14:47:55;;;;;;;;;;;;;;;6.35;100.00;98790.44;5143342;27;19919;-81
2021/10/02 14:50:21;;;;;;;;;;;;;;;6.25;100.00;98783.84;5141756;27;20337;-82
2021/10/02 14:52:47;;;;;;;;;;;;;;;6.16;100.00;98779.84;5123060;27;19938;-82
2021/10/02 14:55:12;;;;;;;;;;;;;;;6.07;100.00;98778.44;5142799;27;19938;-82
2021/10/02 14:57:38;;;;;;;;;;;;;;;6.11;100.00;98768.63;5143233;27;20357;-82
2021/10/02 15:00:07;;;;;;;;;;;;;;;5.98;100.00;98763.00;5142975;27;19922;-81
2021/10/02 15:02:32;;;;;;;;;;;;;;;6.02;100.00;98763.78;5142649;27;19923;-82
2021/10/02 15:04:58;;;;;;;;;;;;;;;6.02;100.00;98758.50;5142969;27;19933;-83
2021/10/02 15:07:27;;;;;;;;;;;;;;;5.95;100.00;98755.22;5146924;27;19923;-82
2021/10/02 15:09:53;;;;;;;;;;;;;;;5.81;100.00;98755.78;5146578;27;20010;-84
2021/10/02 15:12:19;;;;;;;;;;;;;;;5.84;100.00;98755.66;5145257;27;19921;-83
2021/10/02 15:14:45;;;;;;;;;;;;;;;5.77;100.00;98744.50;5146197;27;19916;-82
2021/10/02 15:17:10;;;;;;;;;;;;;;;5.82;100.00;98750.47;5146238;27;19919;-82
2021/10/02 15:19:35;;;;;;;;;;;;;;;5.76;100.00;98736.69;5145178;27;19927;-81
2021/10/02 15:22:02;;;;;;;;;;;;;;;5.80;100.00;98735.66;5146637;27;19919;-81
2021/10/02 15:24:48;;;;;;;;;;;;;;;5.81;100.00;98719.81;5146528;27;19919;-83
2021/10/02 15:27:16;;;;;;;;;;;;;;;5.64;100.00;98717.88;5127988;27;19918;-82
2021/10/02 15:29:42;;;;;;;;;;;;;;;5.58;100.00;98712.00;5145636;27;20213;-81
2021/10/02 15:32:10;;;;;;;;;;;;;;;5.60;100.00;98716.28;5145903;27;19960;-83
2021/10/02 15:34:35;;;;;;;;;;;;;;;5.60;100.00;98711.03;5126875;27;20358;-82
2021/10/02 15:37:01;;;;;;;;;;;;;;;5.54;100.00;98706.03;5145725;27;20002;-82
2021/10/02 15:39:31;;;;;;;;;;;;;;;5.44;100.00;98696.78;5146151;27;19919;-83
2021/10/02 15:42:00;;;;;;;;;;;;;;;5.39;100.00;98696.97;5146084;27;20351;-82
2021/10/02 15:44:27;;;;;;;;;;;;;;;5.41;100.00;98694.28;5146152;27;20347;-82
2021/10/02 15:46:53;;;;;;;;;;;;;;;5.37;100.00;98697.94;5144977;27;19915;-82
2021/10/02 15:49:22;;;;;;;;;;;;;;;5.40;99.78;98692.56;5145705;27;19915;-82
2021/10/02 15:51:49;;;;;;;;;;;;;;;5.36;99.19;98696.22;5144302;27;19958;-81
2021/10/02 15:54:15;;;;;;;;;;;;;;;5.27;99.31;98690.41;5145836;27;19951;-82
2021/10/02 15:56:41;;;;;;;;;;;;;;;5.35;100.00;98684.03;5145876;27;20348;-82
2021/10/02 15:59:10;;;;;;;;;;;;;;;5.18;98.45;98682.03;5145677;27;20289;-82
2021/10/02 16:01:41;;;;;;;;;;;;;;;5.13;99.20;98679.59;5145633;27;19920;-82
2021/10/02 16:04:27;;;;;;;;;;;;;;;5.00;99.02;98679.19;5145080;27;19954;-82
2021/10/02 16:06:53;;;;;;;;;;;;;;;5.15;98.61;98677.75;5143041;27;19938;-82
2021/10/02 16:09:21;;;;;;;;;;;;;;;5.14;97.64;98678.69;5145669;27;19915;-82
2021/10/02 16:11:48;;;;;;;;;;;;;;;5.17;97.46;98675.94;5145639;27;19919;-81
2021/10/02 16:14:15;;;;;;;;;;;;;;;5.06;96.82;98672.88;5144774;27;19915;-82
2021/10/02 16:16:41;;;;;;;;;;;;;;;5.13;96.75;98678.75;5145222;27;19915;-82
2021/10/02 16:19:07;;;;;;;;;;;;;;;5.12;96.18;98675.22;5145002;27;19926;-83
2021/10/02 16:21:32;;;;;;;;;;;;;;;5.07;95.97;98671.94;5125542;27;19919;-81
2021/10/02 16:23:58;;;;;;;;;;;;;;;5.09;95.39;98668.34;5145296;27;19997;-82
2021/10/02 16:26:31;;;;;;;;;;;;;;;5.04;95.46;98669.44;5143987;27;20010;-81
2021/10/02 16:28:57;;;;;;;;;;;;;;;5.01;95.42;98661.66;5144359;27;19920;-82
2021/10/02 16:31:23;;;;;;;;;;;;;;;4.99;95.69;98658.25;5145539;27;19968;-82
2021/10/02 16:33:49;;;;;;;;;;;;;;;5.01;95.49;98649.41;5145033;27;19918;-82
2021/10/02 16:36:14;;;;;;;;;;;;;;;4.94;95.09;98650.53;5142472;27;19916;-82
2021/10/02 16:38:40;;;;;;;;;;;;;;;4.88;95.13;98643.78;5144368;27;19919;-82
2021/10/02 16:41:05;;;;;;;;;;;;;;;4.85;95.97;98643.88;5145199;27;19915;-82
2021/10/02 16:43:31;;;;;;;;;;;;;;;4.77;95.92;98645.94;5144926;27;19922;-81
2021/10/02 16:45:57;;;;;;;;;;;;;;;4.85;95.91;98646.50;5108020;27;19992;-82
2021/10/02 16:48:23;;;;;;;;;;;;;;;4.78;96.25;98637.13;5144756;27;19915;-82
2021/10/02 16:50:50;;;;;;;;;;;;;;;4.86;95.74;98624.56;5143311;27;19925;-82
2021/10/02 16:53:15;;;;;;;;;;;;;;;4.76;95.96;98630.25;5144305;27;19916;-82
2021/10/02 16:55:42;;;;;;;;;;;;;;;4.69;96.08;98632.22;5144382;27;20219;-82
2021/10/02 16:58:07;;;;;;;;;;;;;;;4.68;96.42;98627.91;5144877;27;20464;-83
2021/10/02 17:00:33;;;;;;;;;;;;;;;4.70;96.31;98620.84;5144209;27;19969;-81
2021/10/02 17:02:58;;;;;;;;;;;;;;;4.75;95.81;98611.00;5143900;27;19923;-82
2021/10/02 17:05:23;;;;;;;;;;;;;;;4.78;95.81;98610.06;5143299;27;19955;-81
2021/10/02 17:07:49;;;;;;;;;;;;;;;4.70;95.41;98605.94;5144649;27;19919;-82
2021/10/02 17:10:15;;;;;;;;;;;;;;;4.75;95.86;98605.75;5144390;27;19915;-81
2021/10/02 17:12:40;;;;;;;;;;;;;;;4.73;95.55;98600.56;5144816;27;19943;-82
2021/10/02 17:15:07;;;;;;;;;;;;;;;4.68;95.71;98604.31;5143509;27;20397;-82
2021/10/02 17:17:32;;;;;;;;;;;;;;;4.63;96.40;98601.00;5144261;27;19927;-82
2021/10/02 17:19:57;;;;;;;;;;;;;;;4.73;95.83;98599.72;5141580;27;20328;-82
2021/10/02 17:22:23;;;;;;;;;;;;;;;4.63;96.20;98596.59;5143843;27;20509;-81
2021/10/02 17:24:48;;;;;;;;;;;;;;;4.60;96.17;98596.72;5125829;27;20065;-81
2021/10/02 17:27:13;;;;;;;;;;;;;;;4.69;95.96;98591.13;5143425;27;20346;-81
2021/10/02 17:29:39;;;;;;;;;;;;;;;4.67;96.02;98589.47;5143610;27;19916;-81
2021/10/02 17:32:04;;;;;;;;;;;;;;;4.68;96.03;98588.56;5143889;27;19915;-81
2021/10/02 17:34:29;;;;;;;;;;;;;;;4.62;95.69;98589.63;5144107;27;20578;-82
2021/10/02 17:36:55;;;;;;;;;;;;;;;4.55;96.11;98585.53;5142585;27;19915;-81
2021/10/02 17:39:20;;;;;;;;;;;;;;;4.68;95.96;98578.06;5143255;27;20365;-81
2021/10/02 17:41:45;;;;;;;;;;;;;;;4.63;95.97;98587.88;5143702;27;19919;-81
2021/10/02 17:44:11;;;;;;;;;;;;;;;4.63;96.25;98585.25;5144159;27;19922;-82
2021/10/02 17:46:36;;;;;;;;;;;;;;;4.54;95.80;98576.78;5143627;27;20267;-82
2021/10/02 17:49:02;;;;;;;;;;;;;;;4.48;96.41;98581.41;5143321;27;20293;-81
2021/10/02 17:51:27;;;;;;;;;;;;;;;4.54;96.17;98581.19;5142279;27;19956;-82
2021/10/02 17:53:52;;;;;;;;;;;;;;;4.55;95.96;98578.50;5143436;27;19919;-81
2021/10/02 17:56:18;;;;;;;;;;;;;;;4.51;96.33;98576.91;5124899;27;19910;-82
2021/10/02 17:58:44;;;;;;;;;;;;;;;4.45;96.46;98585.03;5143783;27;19926;-82
2021/10/02 18:01:10;;;;;;;;;;;;;;;4.50;96.30;98583.09;5143450;27;19915;-82
2021/10/02 18:03:36;;;;;;;;;;;;;;;4.50;96.31;98567.34;5143513;27;19920;-82
2021/10/02 18:06:03;;;;;;;;;;;;;;;4.56;96.24;98568.88;5141782;27;20444;-81
2021/10/02 18:08:28;;;;;;;;;;;;;;;4.46;96.42;98568.34;5142971;27;19915;-81
2021/10/02 18:10:54;;;;;;;;;;;;;;;4.53;96.90;98558.47;5142900;27;20297;-81
2021/10/02 18:13:20;;;;;;;;;;;;;;;4.57;95.71;98552.22;5143003;27;19956;-81
2021/10/02 18:15:45;;;;;;;;;;;;;;;4.58;96.00;98551.31;5143238;27;19971;-81
2021/10/02 18:18:10;;;;;;;;;;;;;;;4.49;96.17;98549.03;5143030;27;20021;-81
2021/10/02 18:20:35;;;;;;;;;;;;;;;4.52;96.25;98556.78;5142022;27;19919;-81
2021/10/02 18:23:03;;;;;;;;;;;;;;;4.45;96.69;98550.06;5124445;27;19911;-81
2021/10/02 18:25:31;;;;;;;;;;;;;;;4.53;96.38;98545.38;5142838;27;19915;-81
2021/10/02 18:28:04;;;;;;;;;;;;;;;4.53;96.58;98546.25;5143113;27;19925;-82
2021/10/02 18:30:30;;;;;;;;;;;;;;;4.42;96.36;98535.31;5142729;27;19912;-80
2021/10/02 18:32:55;;;;;;;;;;;;;;;4.51;96.48;98541.97;5142662;27;20013;-82